Time;durP1;ratioP1;P1;durP2;ratioP2;P2;SDS_P1;SDS_P2;PMS_P1;PMS_P2;Temp;Humidity;BMP_temperature;BMP_pressure;BME280_temperature;BME280_humidity;BME280_pressure;Samples;Min_cycle;Max_cycle;Signal;HPM_P1;HPM_P2
2023/05/22 00:01:36;;;;;;;18.05;14.65;;;16.40;9.20;;;;;;7369688;19;20006;-68
2023/05/22 00:04:07;;;;;;;16.55;14.23;;;16.30;9.00;;;;;;7366169;19;20022;-68
2023/05/22 00:06:37;;;;;;;16.35;13.30;;;16.30;9.40;;;;;;7369994;19;20031;-68
2023/05/22 00:09:09;;;;;;;15.98;14.27;;;16.20;10.10;;;;;;7389083;19;20017;-67
2023/05/22 00:11:39;;;;;;;17.92;15.35;;;16.10;10.70;;;;;;7368959;19;20022;-69
2023/05/22 00:14:12;;;;;;;15.85;13.93;;;16.20;11.60;;;;;;7370950;19;20007;-69
2023/05/22 00:16:44;;;;;;;19.98;14.43;;;16.10;11.90;;;;;;7369414;19;20018;-69
2023/05/22 00:19:15;;;;;;;18.23;15.15;;;16.10;12.40;;;;;;7368171;19;20010;-69
2023/05/22 00:21:46;;;;;;;17.27;14.07;;;16.00;12.80;;;;;;7370136;19;20027;-69
2023/05/22 00:24:19;;;;;;;15.95;14.23;;;16.00;13.70;;;;;;7391740;19;20018;-68
2023/05/22 00:26:49;;;;;;;19.40;14.25;;;15.90;14.20;;;;;;7369237;19;20010;-68
2023/05/22 00:29:19;;;;;;;17.13;14.48;;;15.90;15.50;;;;;;7371076;19;20062;-69
2023/05/22 00:31:49;;;;;;;24.02;14.80;;;15.90;16.00;;;;;;7373818;19;20038;-68
2023/05/22 00:34:19;;;;;;;17.60;14.30;;;15.90;15.40;;;;;;7374292;19;20017;-68
2023/05/22 00:36:49;;;;;;;18.30;14.80;;;15.70;15.80;;;;;;7370045;19;20386;-68
2023/05/22 00:39:21;;;;;;;15.95;14.15;;;15.60;17.20;;;;;;7389416;19;20029;-68
2023/05/22 00:41:51;;;;;;;18.50;14.65;;;15.60;18.30;;;;;;7368863;19;20158;-67
2023/05/22 00:44:21;;;;;;;17.00;14.45;;;15.60;18.90;;;;;;7367283;19;20470;-67
2023/05/22 00:46:52;;;;;;;20.40;14.95;;;15.70;17.90;;;;;;7368032;19;20585;-68
2023/05/22 00:49:22;;;;;;;17.70;14.43;;;15.70;17.60;;;;;;7367163;19;20006;-67
2023/05/22 00:51:53;;;;;;;20.42;15.07;;;15.70;17.60;;;;;;7369302;19;20018;-67
2023/05/22 00:54:25;;;;;;;17.95;14.85;;;15.70;17.50;;;;;;7389131;19;20010;-69
2023/05/22 00:56:56;;;;;;;22.35;15.68;;;15.70;16.30;;;;;;7367868;19;20006;-66
2023/05/22 00:59:26;;;;;;;19.67;15.23;;;15.70;16.00;;;;;;7364920;19;20420;-67
2023/05/22 01:01:57;;;;;;;20.10;14.60;;;15.80;15.60;;;;;;7369119;19;20010;-69
2023/05/22 01:04:31;;;;;;;18.52;15.05;;;15.70;15.30;;;;;;7367547;19;20006;-68
2023/05/22 01:07:01;;;;;;;19.48;14.93;;;15.60;15.40;;;;;;7367536;19;20545;-69
2023/05/22 01:09:34;;;;;;;19.30;14.63;;;15.60;17.00;;;;;;7388511;19;20478;-68
2023/05/22 01:12:13;;;;;;;19.88;14.77;;;15.50;17.00;;;;;;7369692;19;20003;-68
2023/05/22 01:14:48;;;;;;;17.10;14.50;;;15.40;18.00;;;;;;7365666;19;20152;-67
2023/05/22 01:17:25;;;;;;;20.23;15.95;;;15.40;19.50;;;;;;7367616;19;20344;-68
2023/05/22 01:20:06;;;;;;;20.45;14.57;;;15.40;20.00;;;;;;7365123;19;20014;-67
2023/05/22 01:23:14;;;;;;;17.73;15.02;;;15.50;19.40;;;;;;7368564;19;20010;-68
2023/05/22 01:26:13;;;;;;;19.13;14.98;;;15.50;18.90;;;;;;7364564;19;20006;-69
2023/05/22 01:29:13;;;;;;;19.73;15.50;;;15.60;18.80;;;;;;7365855;19;20006;-69
2023/05/22 01:31:49;;;;;;;20.10;15.18;;;15.60;18.40;;;;;;7366950;19;20035;-69
2023/05/22 01:34:19;;;;;;;18.42;15.25;;;15.60;17.80;;;;;;7366546;19;20490;-69
2023/05/22 01:36:52;;;;;;;19.58;15.60;;;15.70;17.80;;;;;;7366451;19;20030;-69
2023/05/22 01:39:23;;;;;;;18.63;15.38;;;15.70;17.30;;;;;;7388455;19;20475;-67
2023/05/22 01:41:53;;;;;;;28.42;18.10;;;15.80;16.60;;;;;;7367240;19;20018;-67
2023/05/22 01:44:24;;;;;;;25.50;17.67;;;15.80;15.40;;;;;;7366591;19;20124;-68
2023/05/22 01:46:59;;;;;;;21.15;15.93;;;15.70;15.30;;;;;;7364985;19;20014;-67
2023/05/22 01:49:30;;;;;;;20.75;15.93;;;15.70;15.40;;;;;;7365625;19;20068;-68
2023/05/22 01:52:08;;;;;;;18.38;15.70;;;15.70;15.30;;;;;;7367330;19;20034;-69
2023/05/22 01:54:45;;;;;;;18.73;15.43;;;15.70;15.40;;;;;;7367289;19;20010;-68
2023/05/22 01:57:20;;;;;;;19.98;14.90;;;15.60;16.20;;;;;;7387633;19;20497;-69
2023/05/22 01:59:55;;;;;;;20.17;15.85;;;15.60;16.00;;;;;;7364450;19;20081;-68
2023/05/22 02:02:29;;;;;;;19.80;15.48;;;15.60;16.20;;;;;;7370925;19;20493;-68
2023/05/22 02:05:02;;;;;;;19.70;14.82;;;15.60;16.40;;;;;;7373459;19;20024;-68
2023/05/22 02:07:34;;;;;;;21.42;16.80;;;15.60;17.00;;;;;;7364873;19;20006;-68
2023/05/22 02:10:07;;;;;;;23.92;16.25;;;15.60;16.40;;;;;;7372076;19;20853;-68
2023/05/22 02:12:37;;;;;;;21.50;16.10;;;15.60;16.70;;;;;;7397180;19;20363;-68
2023/05/22 02:15:10;;;;;;;18.20;15.48;;;15.60;16.10;;;;;;7373647;19;20356;-68
2023/05/22 02:17:43;;;;;;;21.58;16.05;;;15.50;16.30;;;;;;7370568;19;20010;-68
2023/05/22 02:20:15;;;;;;;20.05;15.98;;;15.40;16.90;;;;;;7370875;19;20010;-68
2023/05/22 02:22:46;;;;;;;20.75;15.88;;;15.30;17.50;;;;;;7374394;19;20082;-68
2023/05/22 02:25:17;;;;;;;21.65;17.02;;;15.20;18.60;;;;;;7371977;19;20010;-68
2023/05/22 02:27:49;;;;;;;20.63;16.25;;;15.20;19.20;;;;;;7370889;19;20023;-68
2023/05/22 02:30:19;;;;;;;24.15;17.30;;;15.30;19.00;;;;;;7393146;19;20371;-68
2023/05/22 02:32:52;;;;;;;20.55;16.20;;;15.30;18.40;;;;;;7373357;19;20006;-68
2023/05/22 02:35:22;;;;;;;23.10;18.13;;;15.20;18.40;;;;;;7372500;19;20054;-68
2023/05/22 02:37:51;;;;;;;22.42;17.10;;;15.20;19.50;;;;;;7370520;19;20485;-68
2023/05/22 02:40:21;;;;;;;24.33;17.85;;;15.30;19.70;;;;;;7372059;19;20474;-68
2023/05/22 02:42:51;;;;;;;22.02;17.52;;;15.30;19.40;;;;;;7372535;19;20006;-68
2023/05/22 02:45:21;;;;;;;19.23;16.65;;;15.30;19.30;;;;;;7394539;19;20081;-68
2023/05/22 02:47:54;;;;;;;22.50;16.83;;;15.30;19.20;;;;;;7370190;19;20082;-68
2023/05/22 02:50:24;;;;;;;21.85;16.35;;;15.30;19.60;;;;;;7368164;19;20070;-68
2023/05/22 02:52:54;;;;;;;22.60;17.10;;;15.20;19.90;;;;;;7372973;19;20480;-68
2023/05/22 02:55:24;;;;;;;22.15;17.10;;;15.10;20.30;;;;;;7372850;19;20082;-68
2023/05/22 02:57:54;;;;;;;21.02;16.80;;;15.10;20.50;;;;;;7369966;19;20022;-68
2023/05/22 03:00:24;;;;;;;24.38;17.27;;;15.00;20.30;;;;;;7391678;19;20007;-68
2023/05/22 03:02:56;;;;;;;21.58;16.83;;;15.00;20.60;;;;;;7372346;19;20070;-68
2023/05/22 03:05:26;;;;;;;22.08;17.55;;;15.00;20.60;;;;;;7371725;19;20018;-68
2023/05/22 03:07:56;;;;;;;21.63;17.23;;;15.10;20.20;;;;;;7370064;19;20010;-68
2023/05/22 03:10:26;;;;;;;21.77;16.88;;;15.10;20.40;;;;;;7370898;19;20055;-68
2023/05/22 03:12:56;;;;;;;21.33;17.17;;;15.10;19.90;;;;;;7371831;19;20103;-68
2023/05/22 03:15:26;;;;;;;20.52;16.98;;;15.10;19.40;;;;;;7393932;19;20007;-68
2023/05/22 03:17:59;;;;;;;22.40;16.73;;;15.00;19.80;;;;;;7369844;19;20011;-68
2023/05/22 03:20:30;;;;;;;20.63;16.20;;;15.00;20.30;;;;;;7368252;19;20007;-68
2023/05/22 03:23:02;;;;;;;20.88;16.50;;;15.00;20.50;;;;;;7370592;19;20011;-68
2023/05/22 03:25:32;;;;;;;19.17;16.30;;;15.00;20.20;;;;;;7369824;19;20491;-68
2023/05/22 03:28:02;;;;;;;21.52;16.65;;;15.00;20.50;;;;;;7368796;19;20018;-68
2023/05/22 03:30:32;;;;;;;23.17;17.60;;;15.00;20.60;;;;;;7390606;19;20019;-68
2023/05/22 03:33:05;;;;;;;20.15;16.42;;;14.90;20.30;;;;;;7371786;19;20010;-68
2023/05/22 03:35:35;;;;;;;22.38;16.95;;;14.90;21.60;;;;;;7371760;19;20021;-68
2023/05/22 03:38:05;;;;;;;21.95;17.00;;;14.80;21.90;;;;;;7369937;19;20368;-68
2023/05/22 03:40:35;;;;;;;23.27;17.67;;;14.80;21.80;;;;;;7368808;19;20023;-68
2023/05/22 03:43:05;;;;;;;23.50;17.60;;;14.70;21.80;;;;;;7372339;19;20497;-68
2023/05/22 03:45:35;;;;;;;23.00;17.63;;;14.80;22.20;;;;;;7394678;19;20010;-68
2023/05/22 03:48:09;;;;;;;23.40;16.60;;;14.60;21.70;;;;;;7371566;19;20094;-68
2023/05/22 03:50:39;;;;;;;21.38;17.20;;;14.60;21.90;;;;;;7368110;19;20042;-68
2023/05/22 03:53:10;;;;;;;21.60;17.20;;;14.60;21.70;;;;;;7372038;19;20040;-68
2023/05/22 03:55:39;;;;;;;20.70;15.85;;;14.60;20.00;;;;;;7372468;19;20028;-68
2023/05/22 03:58:09;;;;;;;20.05;16.05;;;14.70;20.00;;;;;;7369314;19;20015;-67
2023/05/22 04:00:39;;;;;;;18.15;15.80;;;14.90;19.10;;;;;;7382743;19;20014;-69
2023/05/22 04:03:13;;;;;;;22.15;16.52;;;14.90;18.50;;;;;;7393188;19;20014;-67
2023/05/22 04:05:43;;;;;;;20.00;15.77;;;14.80;18.20;;;;;;7370308;19;20014;-68
2023/05/22 04:08:13;;;;;;;21.83;16.27;;;14.70;20.10;;;;;;7368981;19;20031;-68
2023/05/22 04:10:45;;;;;;;22.85;16.58;;;15.00;19.40;;;;;;7373694;19;20006;-68
2023/05/22 04:13:15;;;;;;;21.20;16.00;;;15.10;19.50;;;;;;7381019;19;20042;-68
2023/05/22 04:15:45;;;;;;;20.35;15.30;;;15.40;17.10;;;;;;7375147;19;20018;-67
2023/05/22 04:18:18;;;;;;;19.85;15.30;;;15.90;14.10;;;;;;7391219;19;20030;-67
2023/05/22 04:20:50;;;;;;;21.48;15.63;;;16.10;11.90;;;;;;7364046;19;20014;-66
2023/05/22 04:23:21;;;;;;;19.52;15.45;;;16.10;10.40;;;;;;7369904;19;20011;-67
2023/05/22 04:25:51;;;;;;;22.70;15.80;;;16.70;5.60;;;;;;7368512;19;20006;-68
2023/05/22 04:28:22;;;;;;;20.80;14.60;;;17.50;1.00;;;;;;7367077;19;20111;-67
2023/05/22 04:30:53;;;;;;;19.10;14.07;;;18.20;1.00;;;;;;7365454;19;20462;-67
2023/05/22 04:33:27;;;;;;;18.55;14.48;;;18.60;1.00;;;;;;7391143;19;20002;-67
2023/05/22 04:35:57;;;;;;;18.65;13.82;;;19.40;1.00;;;;;;7368964;19;20462;-68
2023/05/22 04:38:27;;;;;;;21.25;14.07;;;19.30;1.00;;;;;;7367269;19;20006;-68
2023/05/22 04:40:57;;;;;;;19.63;14.50;;;19.00;1.00;;;;;;7366232;19;20015;-68
2023/05/22 04:43:28;;;;;;;20.60;13.75;;;18.80;1.00;;;;;;7367875;19;20039;-68
2023/05/22 04:45:58;;;;;;;17.52;13.73;;;19.60;1.00;;;;;;7369207;19;20018;-68
2023/05/22 04:48:31;;;;;;;17.60;13.65;;;19.60;1.00;;;;;;7389270;19;20424;-68
2023/05/22 04:51:01;;;;;;;19.80;13.38;;;20.10;1.00;;;;;;7364370;19;20086;-68
2023/05/22 04:53:32;;;;;;;17.77;13.05;;;19.90;1.00;;;;;;7368497;19;20010;-68
2023/05/22 04:56:02;;;;;;;15.43;13.30;;;20.00;1.00;;;;;;7369146;19;20011;-68
2023/05/22 04:58:32;;;;;;;16.42;13.05;;;20.20;1.00;;;;;;7367061;19;20082;-68
2023/05/22 05:01:02;;;;;;;18.67;13.60;;;20.40;1.00;;;;;;7365311;19;20015;-68
2023/05/22 05:03:35;;;;;;;21.05;14.00;;;19.90;1.00;;;;;;7389892;19;20094;-68
2023/05/22 05:06:07;;;;;;;20.80;14.80;;;19.30;1.00;;;;;;7369366;19;20013;-68
2023/05/22 05:08:37;;;;;;;16.25;13.80;;;19.90;1.00;;;;;;7367696;19;20018;-68
2023/05/22 05:11:07;;;;;;;17.90;13.82;;;20.10;1.00;;;;;;7365582;19;20010;-68
2023/05/22 05:13:37;;;;;;;19.10;13.93;;;20.60;1.00;;;;;;7367295;19;20035;-67
2023/05/22 05:16:08;;;;;;;18.13;13.57;;;20.90;1.00;;;;;;7368023;19;20090;-68
2023/05/22 05:18:41;;;;;;;18.45;13.93;;;21.10;1.00;;;;;;7388438;19;20038;-67
2023/05/22 05:21:11;;;;;;;18.33;13.68;;;21.10;1.00;;;;;;7365779;19;20014;-67
2023/05/22 05:23:41;;;;;;;20.25;13.98;;;21.10;1.00;;;;;;7365505;19;20038;-68
2023/05/22 05:26:11;;;;;;;17.92;13.68;;;21.10;1.00;;;;;;7367017;19;20019;-68
2023/05/22 05:28:41;;;;;;;21.83;14.18;;;21.20;1.00;;;;;;7366275;19;21719;-68
2023/05/22 05:31:11;;;;;;;21.05;13.52;;;21.10;1.00;;;;;;7365072;19;20031;-69
2023/05/22 05:33:44;;;;;;;18.33;13.23;;;21.40;1.00;;;;;;7365547;19;20093;-67
2023/05/22 05:36:15;;;;;;;24.80;15.02;;;21.80;1.00;;;;;;7385935;19;20090;-67
2023/05/22 05:38:44;;;;;;;18.33;14.55;;;21.50;1.00;;;;;;7365691;19;20017;-68
2023/05/22 05:41:14;;;;;;;17.17;13.68;;;20.70;1.00;;;;;;7364929;19;20011;-68
2023/05/22 05:43:44;;;;;;;17.30;13.48;;;22.50;1.00;;;;;;7366410;19;20010;-68
2023/05/22 05:46:14;;;;;;;21.38;13.60;;;22.10;1.00;;;;;;7365926;19;20109;-68
2023/05/22 05:48:47;;;;;;;20.50;13.45;;;21.80;1.00;;;;;;7366521;19;20041;-68
2023/05/22 05:51:17;;;;;;;18.58;13.45;;;22.10;1.00;;;;;;7385057;19;20493;-68
2023/05/22 05:53:47;;;;;;;18.45;12.82;;;22.10;1.00;;;;;;7364663;19;20003;-68
2023/05/22 05:56:17;;;;;;;19.13;13.90;;;22.10;1.00;;;;;;7366497;19;20078;-68
2023/05/22 05:58:47;;;;;;;20.20;13.85;;;20.80;1.00;;;;;;7365746;19;20010;-68
2023/05/22 06:01:17;;;;;;;19.70;12.90;;;20.20;1.00;;;;;;7362535;19;20471;-69
2023/05/22 06:03:50;;;;;;;20.70;13.40;;;20.20;1.00;;;;;;7363947;19;20104;-68
2023/05/22 06:06:20;;;;;;;15.77;12.68;;;21.20;1.00;;;;;;7385872;19;20015;-68
2023/05/22 06:08:50;;;;;;;18.73;13.18;;;22.20;1.00;;;;;;7365192;19;20045;-68
2023/05/22 06:11:20;;;;;;;15.80;13.00;;;21.40;1.00;;;;;;7363831;19;20010;-68
2023/05/22 06:13:50;;;;;;;18.70;12.80;;;20.10;1.00;;;;;;7363432;19;20109;-68
2023/05/22 06:16:20;;;;;;;14.40;12.70;;;20.10;1.00;;;;;;7363505;19;20046;-68
2023/05/22 06:18:55;;;;;;;16.63;13.38;;;20.10;1.00;;;;;;7365815;19;20010;-67
2023/05/22 06:21:26;;;;;;;17.35;12.70;;;19.60;1.00;;;;;;7385599;19;20632;-68
2023/05/22 06:23:56;;;;;;;18.83;13.27;;;19.70;1.00;;;;;;7363586;19;20478;-68
2023/05/22 06:26:26;;;;;;;16.58;13.20;;;20.30;1.00;;;;;;7364136;19;20098;-68
2023/05/22 06:28:56;;;;;;;18.90;13.65;;;20.10;1.00;;;;;;7364941;19;20007;-68
2023/05/22 06:31:26;;;;;;;18.13;14.13;;;19.60;1.00;;;;;;7364385;19;20010;-68
2023/05/22 06:33:59;;;;;;;15.60;13.02;;;19.60;1.00;;;;;;7363160;19;20117;-68
2023/05/22 06:36:29;;;;;;;18.40;12.38;;;20.50;1.00;;;;;;7385710;19;20019;-68
2023/05/22 06:38:59;;;;;;;16.35;13.38;;;20.60;1.00;;;;;;7364964;19;20011;-68
2023/05/22 06:41:29;;;;;;;18.33;13.23;;;20.00;1.00;;;;;;7363475;19;19998;-68
2023/05/22 06:44:00;;;;;;;21.73;12.77;;;20.20;1.00;;;;;;7364780;19;20075;-68
2023/05/22 06:46:30;;;;;;;14.13;12.13;;;19.80;1.00;;;;;;7363492;19;20087;-68
2023/05/22 06:49:03;;;;;;;18.98;12.93;;;20.10;1.00;;;;;;7369641;19;20006;-69
2023/05/22 06:51:33;;;;;;;14.85;12.13;;;20.10;1.00;;;;;;7393463;19;20517;-68
2023/05/22 06:54:05;;;;;;;17.83;12.43;;;20.20;1.00;;;;;;7370696;19;20384;-68
2023/05/22 06:56:36;;;;;;;16.02;12.18;;;20.10;1.00;;;;;;7368158;19;20026;-68
2023/05/22 06:59:05;;;;;;;14.30;11.68;;;20.20;1.00;;;;;;7369641;19;20101;-68
2023/05/22 07:01:36;;;;;;;17.75;12.02;;;20.50;1.00;;;;;;7369164;19;20034;-68
2023/05/22 07:04:10;;;;;;;14.93;11.35;;;20.40;1.00;;;;;;7370299;19;20010;-67
2023/05/22 07:06:40;;;;;;;11.57;9.98;;;20.40;1.00;;;;;;7376867;19;20035;-70
2023/05/22 07:09:12;;;;;;;11.32;9.65;;;19.80;1.00;;;;;;7390066;19;20022;-68
2023/05/22 07:11:43;;;;;;;14.88;10.50;;;20.50;1.00;;;;;;7359403;19;20010;-68
2023/05/22 07:14:13;;;;;;;11.23;9.90;;;20.70;1.00;;;;;;7369761;19;20049;-68
2023/05/22 07:16:44;;;;;;;11.70;9.93;;;20.80;1.00;;;;;;7367554;19;20490;-67
2023/05/22 07:19:18;;;;;;;12.05;10.05;;;21.20;1.00;;;;;;7370563;19;20087;-67
2023/05/22 07:21:48;;;;;;;13.68;10.55;;;21.10;1.00;;;;;;7390220;19;20011;-67
2023/05/22 07:24:18;;;;;;;12.65;11.00;;;21.10;1.00;;;;;;7368570;19;20474;-67
2023/05/22 07:26:48;;;;;;;13.98;11.63;;;21.10;1.00;;;;;;7366933;19;20064;-68
2023/05/22 07:29:18;;;;;;;15.63;11.85;;;21.10;1.00;;;;;;7369384;19;20031;-68
2023/05/22 07:31:51;;;;;;;14.20;11.35;;;21.70;1.00;;;;;;7368828;19;20046;-68
2023/05/22 07:34:30;;;;;;;15.85;11.80;;;21.40;1.00;;;;;;7369901;19;20015;-68
2023/05/22 07:37:00;;;;;;;16.83;11.98;;;21.70;1.00;;;;;;7367093;19;20018;-67
2023/05/22 07:39:30;;;;;;;13.48;11.25;;;21.40;1.00;;;;;;7391517;19;20035;-68
2023/05/22 07:42:01;;;;;;;14.60;11.82;;;22.10;1.00;;;;;;7368432;19;20010;-68
2023/05/22 07:44:32;;;;;;;13.02;11.25;;;21.10;1.00;;;;;;7368742;19;20047;-68
2023/05/22 07:47:02;;;;;;;12.30;9.77;;;22.10;1.00;;;;;;7366981;19;20081;-68
2023/05/22 07:49:35;;;;;;;15.50;10.45;;;21.60;1.00;;;;;;7370036;19;20014;-68
2023/05/22 07:52:05;;;;;;;11.60;9.95;;;22.00;1.00;;;;;;7369949;19;20026;-69
2023/05/22 07:54:35;;;;;;;12.07;9.68;;;22.40;1.00;;;;;;7392313;19;20009;-68
2023/05/22 07:57:06;;;;;;;12.48;8.85;;;22.70;1.00;;;;;;7367628;19;20018;-69
2023/05/22 07:59:37;;;;;;;10.18;7.93;;;22.30;1.00;;;;;;7367147;19;20018;-69
2023/05/22 08:02:08;;;;;;;12.23;9.32;;;22.00;1.00;;;;;;7367926;19;20510;-68
2023/05/22 08:04:41;;;;;;;12.85;8.90;;;22.20;1.00;;;;;;7369519;19;20007;-68
2023/05/22 08:07:11;;;;;;;10.25;9.10;;;22.40;1.00;;;;;;7367798;19;20024;-69
2023/05/22 08:09:44;;;;;;;19.83;9.20;;;21.60;1.00;;;;;;7390951;19;20034;-69
2023/05/22 08:12:14;;;;;;;10.87;8.37;;;22.00;1.00;;;;;;7368858;19;20463;-69
2023/05/22 08:14:44;;;;;;;9.88;8.45;;;22.30;1.00;;;;;;7368788;19;20462;-69
2023/05/22 08:17:14;;;;;;;10.55;9.23;;;22.50;1.00;;;;;;7367083;19;20090;-66
2023/05/22 08:19:47;;;;;;;10.95;9.27;;;21.90;1.00;;;;;;7368030;19;20034;-68
2023/05/22 08:22:17;;;;;;;10.75;8.35;;;22.40;1.00;;;;;;7369606;19;20474;-67
2023/05/22 08:24:47;;;;;;;11.20;8.27;;;22.80;1.00;;;;;;7389584;19;20006;-68
2023/05/22 08:27:17;;;;;;;10.57;8.20;;;22.70;1.00;;;;;;7366940;19;20006;-68
2023/05/22 08:29:47;;;;;;;11.38;8.70;;;22.50;1.00;;;;;;7366246;19;20006;-68
2023/05/22 08:32:18;;;;;;;11.32;9.32;;;22.30;1.00;;;;;;7369610;19;20011;-67
2023/05/22 08:34:50;;;;;;;15.00;9.07;;;22.70;1.00;;;;;;7367166;19;20353;-68
2023/05/22 08:37:20;;;;;;;11.20;8.88;;;22.80;1.00;;;;;;7366072;19;20442;-68
2023/05/22 08:39:50;;;;;;;12.75;8.98;;;23.00;1.00;;;;;;7387415;19;20022;-67
2023/05/22 08:42:20;;;;;;;10.25;9.15;;;23.50;1.00;;;;;;7365779;19;20077;-67
2023/05/22 08:44:54;;;;;;;11.75;9.00;;;23.00;1.00;;;;;;7339700;19;20386;-69
2023/05/22 08:47:27;;;;;;;13.35;8.90;;;23.50;1.00;;;;;;7384850;19;20082;-69
2023/05/22 08:50:01;;;;;;;12.95;8.95;;;23.30;1.00;;;;;;7362513;19;20039;-68
2023/05/22 08:52:36;;;;;;;11.50;9.57;;;22.70;1.00;;;;;;7366399;19;20073;-67
2023/05/22 08:55:07;;;;;;;12.57;10.15;;;22.90;1.00;;;;;;7364811;19;20368;-68
2023/05/22 08:57:38;;;;;;;12.50;9.93;;;22.70;1.00;;;;;;7365524;19;20035;-69
2023/05/22 09:00:10;;;;;;;11.13;9.18;;;22.60;1.00;;;;;;7364673;19;20388;-69
2023/05/22 09:02:40;;;;;;;14.52;10.50;;;22.40;1.00;;;;;;7387415;19;20046;-68
2023/05/22 09:05:14;;;;;;;10.98;9.32;;;22.20;1.00;;;;;;7366488;19;20050;-69
2023/05/22 09:07:44;;;;;;;12.17;9.67;;;22.80;1.00;;;;;;7366803;19;20010;-68
2023/05/22 09:10:14;;;;;;;14.45;10.20;;;22.70;1.00;;;;;;7365305;19;20957;-68
2023/05/22 09:13:03;;;;;;;13.65;9.80;;;22.90;1.00;;;;;;7366464;19;20010;-68
2023/05/22 09:15:33;;;;;;;13.20;9.95;;;22.90;1.00;;;;;;7367104;19;20074;-68
2023/05/22 09:18:05;;;;;;;13.55;10.52;;;23.00;1.00;;;;;;7365427;19;20024;-68
2023/05/22 09:20:41;;;;;;;13.25;9.93;;;22.90;1.00;;;;;;7384807;19;20023;-68
2023/05/22 09:23:16;;;;;;;16.80;9.55;;;23.30;1.00;;;;;;7366244;19;20054;-68
2023/05/22 09:25:46;;;;;;;13.82;10.43;;;23.00;1.00;;;;;;7367088;19;20011;-67
2023/05/22 09:28:16;;;;;;;12.60;9.40;;;23.20;1.00;;;;;;7366731;19;20702;-68
2023/05/22 09:30:50;;;;;;;13.40;9.43;;;23.30;1.00;;;;;;7365902;19;20316;-68
2023/05/22 09:33:21;;;;;;;11.95;10.20;;;23.30;1.00;;;;;;7366612;19;20006;-68
2023/05/22 09:35:55;;;;;;;10.77;9.27;;;23.20;1.00;;;;;;7372610;19;20081;-68
2023/05/22 09:38:29;;;;;;;12.57;10.30;;;23.50;1.00;;;;;;7388559;19;20755;-68
2023/05/22 09:40:59;;;;;;;11.20;9.65;;;23.60;1.00;;;;;;7363932;19;20070;-68
2023/05/22 09:43:29;;;;;;;14.45;10.02;;;23.60;1.00;;;;;;7364626;19;20018;-68
2023/05/22 09:46:02;;;;;;;13.55;10.07;;;23.80;1.00;;;;;;7364542;19;20015;-68
2023/05/22 09:48:36;;;;;;;14.68;9.60;;;23.70;1.00;;;;;;7366182;19;20014;-68
2023/05/22 09:51:09;;;;;;;14.38;10.13;;;24.30;1.00;;;;;;7363628;19;20078;-68
2023/05/22 09:53:44;;;;;;;13.60;11.10;;;24.10;1.00;;;;;;7386011;19;20013;-68
2023/05/22 09:56:16;;;;;;;10.90;9.23;;;23.80;1.00;;;;;;7364604;19;20011;-68
2023/05/22 09:59:03;;;;;;;11.52;8.90;;;24.00;1.00;;;;;;7364642;19;20024;-68
2023/05/22 10:01:34;;;;;;;11.77;9.43;;;24.30;1.00;;;;;;7363487;19;20028;-68
2023/05/22 10:04:06;;;;;;;12.88;10.23;;;24.10;1.00;;;;;;7365162;19;20078;-67
2023/05/22 10:06:39;;;;;;;11.63;9.10;;;24.50;1.00;;;;;;7365154;19;20011;-68
2023/05/22 10:09:16;;;;;;;10.68;9.57;;;24.50;1.00;;;;;;7365736;19;20024;-68
2023/05/22 10:11:48;;;;;;;11.18;9.80;;;24.40;1.00;;;;;;7385181;19;20419;-68
2023/05/22 10:14:19;;;;;;;14.85;9.52;;;24.30;1.00;;;;;;7365837;19;20010;-68
2023/05/22 10:16:50;;;;;;;12.27;9.25;;;24.70;1.00;;;;;;7364522;19;20382;-69
2023/05/22 10:19:20;;;;;;;14.38;10.15;;;24.70;1.00;;;;;;7365097;19;20014;-67
2023/05/22 10:21:53;;;;;;;11.05;9.88;;;24.70;1.00;;;;;;7363434;19;20010;-68
2023/05/22 10:24:24;;;;;;;12.20;10.00;;;24.40;1.00;;;;;;7371611;19;20028;-68
2023/05/22 10:26:55;;;;;;;13.45;10.00;;;24.60;1.00;;;;;;7371887;19;20070;-68
2023/05/22 10:29:30;;;;;;;10.70;9.57;;;24.80;1.00;;;;;;7394049;19;20101;-68
2023/05/22 10:32:06;;;;;;;11.55;10.38;;;25.10;1.00;;;;;;7370515;19;20018;-68
2023/05/22 10:34:48;;;;;;;11.65;10.45;;;25.20;1.00;;;;;;7373348;19;20477;-69
2023/05/22 10:37:38;;;;;;;9.98;8.98;;;25.10;1.00;;;;;;7371906;19;20078;-68
2023/05/22 10:40:12;;;;;;;10.98;9.48;;;25.00;1.00;;;;;;7370678;19;20003;-69
2023/05/22 10:42:42;;;;;;;11.85;10.23;;;25.30;1.00;;;;;;7371781;19;20372;-68
2023/05/22 10:45:12;;;;;;;11.00;9.52;;;25.50;1.00;;;;;;7371484;19;20008;-68
2023/05/22 10:47:43;;;;;;;11.73;9.27;;;25.50;1.00;;;;;;7392145;19;20034;-69
2023/05/22 10:50:14;;;;;;;11.32;9.15;;;25.40;1.00;;;;;;7370290;19;20014;-69
2023/05/22 10:52:46;;;;;;;12.32;9.02;;;26.00;1.00;;;;;;7370170;19;20018;-68
2023/05/22 10:55:16;;;;;;;11.20;9.30;;;25.40;1.00;;;;;;7372051;19;20003;-69
2023/05/22 10:57:47;;;;;;;11.48;9.75;;;25.30;1.00;;;;;;7371172;19;20003;-68
2023/05/22 11:00:19;;;;;;;14.65;9.07;;;25.10;1.00;;;;;;7370233;19;20011;-68
2023/05/22 11:02:50;;;;;;;11.82;9.20;;;25.80;1.00;;;;;;7392155;19;20681;-69
2023/05/22 11:05:35;;;;;;;13.35;9.90;;;24.60;1.00;;;;;;7361337;19;20049;-69
2023/05/22 11:08:35;;;;;;;12.40;8.95;;;25.70;1.00;;;;;;7369518;19;20014;-69
2023/05/22 11:11:15;;;;;;;13.85;9.40;;;26.40;1.00;;;;;;7367221;19;20458;-68
2023/05/22 11:13:45;;;;;;;9.32;8.35;;;26.00;1.00;;;;;;7368302;19;20007;-68
2023/05/22 11:16:17;;;;;;;10.38;9.38;;;26.10;1.00;;;;;;7369617;19;20492;-69
2023/05/22 11:18:47;;;;;;;11.60;9.48;;;25.40;1.00;;;;;;7370967;19;20082;-68
2023/05/22 11:21:17;;;;;;;10.85;9.15;;;25.50;1.00;;;;;;7369810;19;20022;-69
2023/05/22 11:23:48;;;;;;;18.25;9.98;;;25.70;1.00;;;;;;7389774;19;20011;-69
2023/05/22 11:26:25;;;;;;;11.80;9.52;;;25.80;1.00;;;;;;7367130;19;20478;-68
2023/05/22 11:28:57;;;;;;;10.55;9.45;;;26.20;1.00;;;;;;7370451;19;20015;-68
2023/05/22 11:31:27;;;;;;;11.20;10.02;;;26.00;1.00;;;;;;7370504;19;20025;-69
2023/05/22 11:33:57;;;;;;;10.13;9.10;;;26.00;1.00;;;;;;7367692;19;20082;-69
2023/05/22 11:36:30;;;;;;;12.27;9.43;;;26.10;1.00;;;;;;7368883;19;20024;-69
2023/05/22 11:39:01;;;;;;;10.13;8.98;;;26.00;1.00;;;;;;7371249;19;20007;-69
2023/05/22 11:41:37;;;;;;;10.45;9.45;;;26.40;1.00;;;;;;7392453;19;20034;-69
2023/05/22 11:44:10;;;;;;;12.30;10.15;;;25.80;1.00;;;;;;7369297;19;20018;-69
2023/05/22 11:46:41;;;;;;;13.15;10.63;;;26.30;1.00;;;;;;7366928;19;20013;-69
2023/05/22 11:49:12;;;;;;;13.32;9.73;;;26.30;1.00;;;;;;7369014;19;20409;-70
2023/05/22 11:51:42;;;;;;;13.23;9.80;;;26.40;1.00;;;;;;7370112;19;20010;-69
2023/05/22 11:54:12;;;;;;;10.98;9.75;;;26.50;1.00;;;;;;7369496;19;20021;-69
2023/05/22 11:56:45;;;;;;;10.70;9.25;;;25.80;1.00;;;;;;7390452;19;20014;-69
2023/05/22 11:59:15;;;;;;;11.30;9.95;;;26.00;1.00;;;;;;7368404;19;20010;-67
2023/05/22 12:01:45;;;;;;;12.98;9.93;;;25.90;1.00;;;;;;7368107;19;20405;-68
2023/05/22 12:04:15;;;;;;;10.93;9.82;;;25.80;1.00;;;;;;7368990;19;20025;-69
2023/05/22 12:06:46;;;;;;;10.95;9.85;;;26.60;1.00;;;;;;7366250;19;20399;-70
2023/05/22 12:09:16;;;;;;;14.93;12.00;;;26.50;1.00;;;;;;7368134;19;20117;-68
2023/05/22 12:11:49;;;;;;;11.00;9.90;;;26.30;1.00;;;;;;7390754;19;20035;-68
2023/05/22 12:14:19;;;;;;;12.02;9.73;;;26.80;1.00;;;;;;7369158;19;20017;-69
2023/05/22 12:16:53;;;;;;;11.80;10.60;;;27.00;1.00;;;;;;7365844;19;20025;-69
2023/05/22 12:19:23;;;;;;;;;;;26.70;1.00;;;;;;7369430;19;20025;-69
2023/05/22 12:21:54;;;;;;;11.32;9.82;;;26.80;1.00;;;;;;7367602;19;19903;-69
2023/05/22 12:24:24;;;;;;;10.82;9.25;;;26.20;1.00;;;;;;7368763;19;20014;-70
2023/05/22 12:26:58;;;;;;;12.07;10.27;;;26.60;1.00;;;;;;7363425;19;20023;-68
2023/05/22 12:29:29;;;;;;;13.20;9.75;;;26.70;1.00;;;;;;7389885;19;20470;-68
2023/05/22 12:32:03;;;;;;;12.23;9.85;;;26.80;1.00;;;;;;7367836;19;20085;-69
2023/05/22 12:34:35;;;;;;;11.10;10.00;;;26.90;1.00;;;;;;7368270;19;20066;-68
2023/05/22 12:37:05;;;;;;;15.77;10.60;;;26.40;1.00;;;;;;7365973;19;20040;-68
2023/05/22 12:39:35;;;;;;;11.88;10.02;;;26.20;1.00;;;;;;7367112;19;20079;-68
2023/05/22 12:42:08;;;;;;;13.52;10.13;;;27.10;1.00;;;;;;7368207;19;20025;-68
2023/05/22 12:44:40;;;;;;;11.80;9.93;;;27.30;1.00;;;;;;7390050;19;20078;-69
2023/05/22 12:47:10;;;;;;;13.35;10.70;;;27.40;1.00;;;;;;7363274;19;20115;-69
2023/05/22 12:49:41;;;;;;;11.15;9.93;;;27.20;1.00;;;;;;7368860;19;20078;-69
2023/05/22 12:52:11;;;;;;;12.85;10.00;;;27.30;1.00;;;;;;7368739;19;20025;-69
2023/05/22 12:54:42;;;;;;;10.77;9.30;;;27.30;1.00;;;;;;7363154;19;20018;-69
2023/05/22 12:57:15;;;;;;;11.63;8.88;;;27.60;1.00;;;;;;7365468;19;20015;-69
2023/05/22 12:59:46;;;;;;;10.52;9.43;;;27.40;1.00;;;;;;7385073;19;20010;-68
2023/05/22 13:02:17;;;;;;;10.68;8.60;;;27.60;1.00;;;;;;7365095;19;20010;-68